Time;durP1;ratioP1;P1;durP2;ratioP2;P2;SDS_P1;SDS_P2;PMS_P1;PMS_P2;Temp;Humidity;BMP_temperature;BMP_pressure;BME280_temperature;BME280_humidity;BME280_pressure;Samples;Min_cycle;Max_cycle;Signal;HPM_P1;HPM_P2
2020/12/09 00:01:29;;;;;;;33.27;23.80;;;4.40;99.90;;;;;;5018172;28;20231;-85
2020/12/09 00:03:57;;;;;;;38.10;25.73;;;4.40;99.90;;;;;;5013174;28;20199;-80
2020/12/09 00:06:25;;;;;;;31.67;23.87;;;4.40;99.90;;;;;;5012549;28;20207;-86
2020/12/09 00:08:51;;;;;;;33.20;24.10;;;4.40;99.90;;;;;;5010880;28;20215;-82
2020/12/09 00:11:19;;;;;;;33.03;23.57;;;4.40;99.90;;;;;;5011719;28;20199;-77
2020/12/09 00:13:46;;;;;;;34.50;24.53;;;4.40;99.90;;;;;;5011753;28;20628;-77
2020/12/09 00:16:12;;;;;;;32.43;24.37;;;4.40;99.90;;;;;;5010547;28;20203;-89
2020/12/09 00:18:39;;;;;;;31.70;23.20;;;4.30;99.90;;;;;;5012096;28;20195;-78
2020/12/09 00:21:05;;;;;;;34.77;24.80;;;4.30;99.90;;;;;;5011671;28;20529;-76
2020/12/09 00:23:33;;;;;;;37.80;25.70;;;4.30;99.90;;;;;;5014070;28;20211;-96
2020/12/09 00:26:02;;;;;;;35.00;25.27;;;4.20;99.90;;;;;;5024372;28;20198;-95
2020/12/09 00:28:34;;;;;;;33.30;23.97;;;4.20;99.90;;;;;;5028895;28;20234;-77
2020/12/09 00:31:02;;;;;;;34.93;24.57;;;4.20;99.90;;;;;;5031398;28;20195;-96
2020/12/09 00:33:28;;;;;;;32.23;25.03;;;4.20;99.90;;;;;;5032664;28;20238;-92
2020/12/09 00:35:57;;;;;;;35.77;24.40;;;4.20;99.90;;;;;;5031730;28;20605;-81
2020/12/09 00:38:23;;;;;;;37.30;24.80;;;4.20;99.90;;;;;;5029349;28;20218;-77
2020/12/09 00:40:53;;;;;;;35.10;23.57;;;4.10;99.90;;;;;;5033994;28;20564;-95
2020/12/09 00:43:19;;;;;;;31.90;22.30;;;4.10;99.90;;;;;;5036866;28;20266;-96
2020/12/09 00:45:46;;;;;;;30.73;23.33;;;4.10;99.90;;;;;;5032308;28;20248;-79
2020/12/09 00:48:13;;;;;;;29.97;21.10;;;4.00;99.90;;;;;;5032261;28;20903;-81
2020/12/09 00:50:42;;;;;;;28.70;20.87;;;4.00;99.90;;;;;;5037777;28;20210;-96
2020/12/09 00:53:16;;;;;;;27.63;20.07;;;4.00;99.90;;;;;;5041299;28;20206;-96
2020/12/09 00:55:44;;;;;;;28.37;21.23;;;3.90;99.90;;;;;;5036062;23;20317;-95
2020/12/09 00:58:11;;;;;;;29.77;21.73;;;3.90;99.90;;;;;;5019630;28;20218;-95
2020/12/09 01:00:37;;;;;;;27.57;20.83;;;3.90;99.90;;;;;;5017351;28;20218;-83
2020/12/09 01:03:04;;;;;;;30.70;21.50;;;3.80;99.90;;;;;;5013121;28;20289;-96
2020/12/09 01:05:30;;;;;;;32.77;23.93;;;3.80;99.90;;;;;;5013261;28;20195;-96
2020/12/09 01:07:56;;;;;;;30.77;22.60;;;3.80;99.90;;;;;;5012089;28;20218;-96
2020/12/09 01:10:23;;;;;;;31.93;21.90;;;3.80;99.90;;;;;;5013360;28;20246;-94
2020/12/09 01:12:49;;;;;;;29.00;21.70;;;3.80;99.90;;;;;;5019123;28;20223;-96
2020/12/09 01:15:18;;;;;;;32.00;21.93;;;3.70;99.90;;;;;;5015781;28;20645;-95
2020/12/09 01:17:44;;;;;;;30.27;21.40;;;3.70;99.90;;;;;;5014225;28;20249;-95
2020/12/09 01:20:11;;;;;;;28.60;19.87;;;3.70;99.90;;;;;;5014490;28;20207;-96
2020/12/09 01:22:37;;;;;;;31.77;22.07;;;3.70;99.90;;;;;;5013470;28;20207;-95
2020/12/09 01:25:04;;;;;;;36.33;24.60;;;3.70;99.90;;;;;;5012226;28;20210;-95
2020/12/09 01:27:30;;;;;;;32.80;22.73;;;3.60;99.90;;;;;;5012029;28;20222;-95
2020/12/09 01:29:57;;;;;;;35.40;24.93;;;3.60;99.90;;;;;;5015271;28;20206;-94
2020/12/09 01:32:24;;;;;;;35.93;23.57;;;3.70;99.90;;;;;;5014012;28;20199;-96
2020/12/09 01:34:51;;;;;;;36.20;25.00;;;3.70;99.90;;;;;;5014308;28;20631;-96
2020/12/09 01:37:17;;;;;;;36.03;23.80;;;3.70;99.90;;;;;;5014767;28;20199;-96
2020/12/09 01:39:43;;;;;;;35.73;24.67;;;3.70;99.90;;;;;;5015277;28;20233;-95
2020/12/09 01:42:13;;;;;;;39.13;25.07;;;3.70;99.90;;;;;;5015285;28;20494;-96
2020/12/09 01:44:39;;;;;;;43.33;28.80;;;3.70;99.90;;;;;;5018704;28;20198;-91
2020/12/09 01:47:06;;;;;;;37.23;26.20;;;3.70;99.90;;;;;;5014988;28;20572;-95
2020/12/09 01:49:34;;;;;;;35.00;24.33;;;3.70;99.90;;;;;;5014887;28;20207;-96
2020/12/09 01:52:02;;;;;;;36.93;24.30;;;3.70;99.90;;;;;;5014502;28;20298;-96
2020/12/09 01:54:29;;;;;;;39.43;27.37;;;3.70;99.90;;;;;;5016857;28;20234;-96
2020/12/09 01:57:09;;;;;;;41.07;27.70;;;3.70;99.90;;;;;;5015341;28;20286;-96
2020/12/09 01:59:37;;;;;;;39.23;27.67;;;3.70;99.90;;;;;;5012028;28;20203;-96
2020/12/09 02:02:04;;;;;;;38.43;26.90;;;3.70;99.90;;;;;;5013155;28;20210;-95
2020/12/09 02:04:31;;;;;;;38.67;26.50;;;3.70;99.90;;;;;;5016631;28;20195;-96
2020/12/09 02:06:59;;;;;;;40.20;26.63;;;3.70;99.90;;;;;;5017874;28;20221;-96
2020/12/09 02:09:26;;;;;;;38.13;25.33;;;3.70;99.90;;;;;;5022574;28;20215;-96
2020/12/09 02:11:53;;;;;;;37.77;25.53;;;3.70;99.90;;;;;;5019944;28;20592;-91
2020/12/09 02:14:24;;;;;;;37.40;24.70;;;3.70;99.90;;;;;;5019087;28;20697;-92
2020/12/09 02:16:51;;;;;;;30.93;22.10;;;3.70;99.90;;;;;;5020401;28;20261;-95
2020/12/09 02:19:18;;;;;;;30.20;21.53;;;3.70;99.90;;;;;;5019211;28;20778;-96
2020/12/09 02:21:46;;;;;;;29.87;21.17;;;3.60;99.90;;;;;;5018762;28;20230;-95
2020/12/09 02:24:12;;;;;;;33.03;22.13;;;3.60;99.90;;;;;;5018630;28;20210;-94
2020/12/09 02:26:44;;;;;;;31.27;22.13;;;3.60;99.90;;;;;;5018148;28;20294;-95
2020/12/09 02:29:10;;;;;;;31.17;22.33;;;3.50;99.90;;;;;;5016734;28;20203;-95
2020/12/09 02:31:37;;;;;;;31.30;21.50;;;3.50;99.90;;;;;;5015458;28;20202;-96
2020/12/09 02:34:04;;;;;;;27.03;20.27;;;3.50;99.90;;;;;;5014645;28;20226;-96
2020/12/09 02:36:31;;;;;;;37.87;26.37;;;3.40;99.90;;;;;;5022435;28;20279;-96
2020/12/09 02:38:58;;;;;;;35.20;24.77;;;3.40;99.90;;;;;;5019810;28;20207;-95
2020/12/09 02:41:25;;;;;;;33.33;23.63;;;3.30;99.90;;;;;;5012088;28;20237;-94
2020/12/09 02:43:51;;;;;;;34.53;24.60;;;3.30;99.90;;;;;;5013596;28;20211;-96
2020/12/09 02:46:18;;;;;;;36.07;24.47;;;3.30;99.90;;;;;;5013701;28;20222;-94
2020/12/09 02:48:44;;;;;;;33.50;23.60;;;3.20;99.90;;;;;;5012271;28;20506;-94
2020/12/09 02:51:10;;;;;;;35.97;23.70;;;3.20;99.90;;;;;;5012530;28;20426;-93
2020/12/09 02:53:36;;;;;;;33.93;23.53;;;3.10;99.90;;;;;;5012480;28;20222;-93
2020/12/09 02:56:04;;;;;;;32.83;22.73;;;3.10;99.90;;;;;;5011517;28;20243;-92
2020/12/09 02:58:30;;;;;;;30.50;21.07;;;3.10;99.90;;;;;;5018338;28;20179;-92
2020/12/09 03:00:57;;;;;;;30.83;23.10;;;3.00;99.90;;;;;;5027405;28;20254;-87
2020/12/09 03:03:23;;;;;;;32.33;23.00;;;3.00;99.90;;;;;;5011511;28;20290;-91
2020/12/09 03:05:49;;;;;;;34.17;23.77;;;3.00;99.90;;;;;;5011918;28;20203;-90
2020/12/09 03:08:16;;;;;;;31.83;21.97;;;2.90;99.90;;;;;;5010059;28;20884;-91
2020/12/09 03:10:42;;;;;;;33.67;23.20;;;2.90;99.90;;;;;;5011387;28;20350;-91
2020/12/09 03:13:09;;;;;;;30.97;23.00;;;2.90;99.90;;;;;;5010941;28;20457;-90
2020/12/09 03:15:36;;;;;;;35.13;24.17;;;2.80;99.90;;;;;;5010308;28;20223;-90
2020/12/09 03:18:02;;;;;;;36.70;24.63;;;2.80;99.90;;;;;;5012712;28;20214;-89
2020/12/09 03:20:28;;;;;;;33.23;23.10;;;2.70;99.90;;;;;;5012971;28;20473;-88
2020/12/09 03:22:55;;;;;;;30.83;23.23;;;2.70;99.90;;;;;;5012545;28;20204;-89
2020/12/09 03:25:21;;;;;;;30.23;22.50;;;2.70;99.90;;;;;;5011559;28;20204;-89
2020/12/09 03:27:47;;;;;;;28.33;21.07;;;2.70;99.90;;;;;;5011143;28;20211;-89
2020/12/09 03:30:14;;;;;;;32.27;22.07;;;2.60;99.90;;;;;;5010907;28;20599;-89
2020/12/09 03:32:40;;;;;;;30.07;20.47;;;2.60;99.90;;;;;;5011855;28;20214;-89
2020/12/09 03:35:07;;;;;;;29.63;21.07;;;2.60;99.90;;;;;;5014936;28;20223;-88
2020/12/09 03:37:33;;;;;;;30.47;21.43;;;2.50;99.90;;;;;;5014831;28;20199;-89
2020/12/09 03:39:59;;;;;;;30.60;21.13;;;2.50;99.90;;;;;;5014528;28;20224;-89
2020/12/09 03:42:26;;;;;;;29.27;20.83;;;2.40;99.90;;;;;;5014873;28;20199;-88
2020/12/09 03:44:52;;;;;;;29.70;20.33;;;2.40;99.90;;;;;;5013981;28;20210;-88
2020/12/09 03:47:19;;;;;;;30.07;21.53;;;2.40;99.90;;;;;;5013967;28;20200;-88
2020/12/09 03:49:46;;;;;;;30.57;21.57;;;2.30;99.90;;;;;;5013653;28;20206;-88
2020/12/09 03:52:12;;;;;;;28.77;20.57;;;2.30;99.90;;;;;;5014394;28;20210;-82
2020/12/09 03:54:38;;;;;;;29.00;20.03;;;2.20;99.90;;;;;;5014175;28;20255;-87
2020/12/09 03:57:05;;;;;;;28.80;19.97;;;2.20;99.90;;;;;;5013928;28;20238;-87
2020/12/09 03:59:31;;;;;;;33.50;23.40;;;2.20;99.90;;;;;;5014253;28;20214;-87
2020/12/09 04:01:57;;;;;;;33.10;23.20;;;2.20;99.90;;;;;;5014656;28;20208;-87
2020/12/09 04:04:24;;;;;;;33.33;22.53;;;2.20;99.90;;;;;;5014305;28;20211;-82
2020/12/09 04:06:50;;;;;;;36.40;23.00;;;2.20;99.90;;;;;;5014219;28;20199;-86
2020/12/09 04:09:17;;;;;;;33.93;22.83;;;2.20;99.90;;;;;;5014022;28;20199;-87
2020/12/09 04:11:43;;;;;;;33.63;22.47;;;2.10;99.90;;;;;;5014433;28;20203;-86
2020/12/09 04:14:09;;;;;;;31.13;22.63;;;2.10;99.90;;;;;;5012447;28;20285;-86
2020/12/09 04:16:35;;;;;;;29.80;21.37;;;2.10;99.90;;;;;;5013669;28;20599;-86
2020/12/09 04:19:02;;;;;;;33.63;22.00;;;2.00;99.90;;;;;;5013438;28;20592;-88
2020/12/09 04:21:29;;;;;;;37.40;24.10;;;2.00;99.90;;;;;;5013823;28;20199;-87
2020/12/09 04:23:55;;;;;;;38.03;25.70;;;2.00;99.90;;;;;;5011147;28;20210;-79
2020/12/09 04:26:22;;;;;;;36.57;24.27;;;2.00;99.90;;;;;;5018989;28;20698;-76
2020/12/09 04:28:48;;;;;;;35.87;23.57;;;2.00;99.90;;;;;;5026761;28;20218;-77
2020/12/09 04:31:14;;;;;;;34.77;21.07;;;1.90;99.90;;;;;;5026422;28;20194;-79
2020/12/09 04:33:55;;;;;;;32.73;21.33;;;1.90;99.90;;;;;;5026283;28;20713;-77
2020/12/09 04:36:22;;;;;;;36.83;25.07;;;1.90;99.90;;;;;;5026502;28;20225;-77
2020/12/09 04:38:50;;;;;;;35.50;23.43;;;1.80;99.90;;;;;;5028053;28;20202;-78
2020/12/09 04:41:16;;;;;;;37.97;24.77;;;1.80;99.90;;;;;;5025735;28;20697;-81
2020/12/09 04:43:42;;;;;;;37.67;24.53;;;1.80;99.90;;;;;;5026992;28;20210;-78
2020/12/09 04:46:09;;;;;;;41.83;25.07;;;1.80;99.90;;;;;;5027685;28;20202;-79
2020/12/09 04:48:40;;;;;;;35.83;23.83;;;1.70;99.90;;;;;;5026414;28;20222;-80
2020/12/09 04:51:48;;;;;;;38.43;25.03;;;1.70;99.90;;;;;;5027640;28;20227;-84
2020/12/09 04:54:18;;;;;;;35.80;23.00;;;1.70;99.90;;;;;;5027805;28;20314;-78
2020/12/09 04:56:53;;;;;;;42.07;26.77;;;1.60;99.90;;;;;;5027154;28;20206;-76
2020/12/09 04:59:24;;;;;;;38.63;24.40;;;1.60;99.90;;;;;;5027573;28;20203;-81
2020/12/09 05:02:02;;;;;;;41.87;25.13;;;1.60;99.90;;;;;;5027612;28;20902;-79
2020/12/09 05:04:31;;;;;;;40.37;25.83;;;1.50;99.90;;;;;;5027993;28;20195;-77
2020/12/09 05:07:05;;;;;;;39.57;25.03;;;1.50;99.90;;;;;;5026858;28;20244;-78
2020/12/09 05:09:38;;;;;;;35.30;23.47;;;1.50;99.90;;;;;;5027191;28;20822;-78
2020/12/09 05:12:07;;;;;;;34.27;22.23;;;1.40;99.90;;;;;;5026794;28;20282;-77
2020/12/09 05:14:36;;;;;;;34.93;23.47;;;1.40;99.90;;;;;;5027384;28;20238;-83
2020/12/09 05:17:05;;;;;;;33.70;23.10;;;1.40;99.90;;;;;;5026680;28;20207;-78
2020/12/09 05:19:31;;;;;;;33.77;22.17;;;1.40;99.90;;;;;;5027257;28;20579;-77
2020/12/09 05:22:06;;;;;;;32.20;22.40;;;1.30;99.90;;;;;;5027675;28;20293;-80
2020/12/09 05:24:33;;;;;;;33.63;22.70;;;1.30;99.90;;;;;;5027078;28;20191;-83
2020/12/09 05:26:59;;;;;;;31.87;21.67;;;1.30;99.90;;;;;;5027124;28;20207;-76
2020/12/09 05:29:25;;;;;;;35.53;22.23;;;1.30;99.90;;;;;;5026139;28;20217;-82
2020/12/09 05:31:59;;;;;;;35.27;22.80;;;1.30;99.90;;;;;;5026729;28;20203;-77
2020/12/09 05:34:33;;;;;;;38.90;23.63;;;1.30;99.90;;;;;;5026592;28;20516;-82
2020/12/09 05:37:01;;;;;;;30.07;21.07;;;1.30;99.90;;;;;;5025997;28;20198;-76
2020/12/09 05:39:28;;;;;;;32.03;21.30;;;1.20;99.90;;;;;;5026104;28;20194;-77
2020/12/09 05:41:56;;;;;;;30.97;22.00;;;1.20;99.90;;;;;;5026251;28;20198;-79
2020/12/09 05:44:23;;;;;;;30.90;21.37;;;1.20;99.90;;;;;;5025945;28;20917;-81
2020/12/09 05:46:55;;;;;;;32.77;21.97;;;1.20;99.90;;;;;;5025945;28;20222;-79
2020/12/09 05:49:22;;;;;;;34.37;22.07;;;1.20;99.90;;;;;;5023993;28;20625;-82
2020/12/09 05:52:07;;;;;;;35.00;22.40;;;1.10;99.90;;;;;;5022951;28;20210;-82
2020/12/09 05:54:35;;;;;;;37.30;24.77;;;1.10;99.90;;;;;;5023283;28;20218;-78
2020/12/09 05:57:08;;;;;;;42.43;27.00;;;1.10;99.90;;;;;;5025883;28;20199;-84
2020/12/09 05:59:39;;;;;;;38.17;26.10;;;1.10;99.90;;;;;;5026240;28;20638;-81
2020/12/09 06:02:11;;;;;;;41.57;26.73;;;1.20;99.90;;;;;;5026104;28;20210;-82
2020/12/09 06:04:58;;;;;;;45.23;28.37;;;1.20;99.90;;;;;;5026187;28;20186;-83
2020/12/09 06:07:26;;;;;;;53.40;29.27;;;1.30;99.90;;;;;;5022094;28;20241;-81
2020/12/09 06:10:17;;;;;;;53.40;28.70;;;1.30;99.90;;;;;;5026985;28;20210;-80
2020/12/09 06:12:55;;;;;;;45.97;28.57;;;1.30;99.90;;;;;;5016058;28;20213;-81
2020/12/09 06:15:23;;;;;;;65.10;28.77;;;1.40;99.90;;;;;;5026196;28;20233;-81
2020/12/09 06:18:02;;;;;;;73.73;26.50;;;1.40;99.90;;;;;;5026845;28;20206;-81
2020/12/09 06:20:29;;;;;;;103.40;27.80;;;1.50;99.90;;;;;;5027325;28;20222;-81
2020/12/09 06:22:57;;;;;;;82.40;27.27;;;1.50;99.90;;;;;;5026828;28;20226;-82
2020/12/09 06:25:23;;;;;;;70.37;27.97;;;1.40;99.90;;;;;;5022272;28;20283;-81
2020/12/09 06:27:50;;;;;;;90.27;27.17;;;1.40;99.90;;;;;;5007278;28;20211;-82
2020/12/09 06:30:26;;;;;;;97.67;29.60;;;1.40;99.90;;;;;;5006828;28;20592;-82
2020/12/09 06:32:53;;;;;;;45.30;26.77;;;1.40;99.90;;;;;;5006911;28;20190;-81
2020/12/09 06:35:21;;;;;;;59.23;27.73;;;1.40;99.90;;;;;;5007098;28;20229;-83
2020/12/09 06:38:20;;;;;;;75.97;28.23;;;1.30;99.90;;;;;;5008260;28;20214;-82
2020/12/09 06:41:12;;;;;;;48.27;26.47;;;1.30;99.90;;;;;;5007356;28;20274;-81
2020/12/09 06:43:59;;;;;;;67.07;29.40;;;1.30;99.90;;;;;;5007583;28;20203;-83
2020/12/09 06:46:37;;;;;;;66.73;28.37;;;1.20;99.90;;;;;;5007414;28;20199;-83
2020/12/09 06:49:03;;;;;;;53.37;26.63;;;1.20;99.90;;;;;;5007947;28;20218;-82
2020/12/09 06:51:37;;;;;;;46.47;26.43;;;1.10;99.90;;;;;;5007062;28;20277;-82
2020/12/09 06:54:16;;;;;;;65.17;28.10;;;1.10;99.90;;;;;;5006656;28;20366;-82
2020/12/09 06:56:44;;;;;;;75.67;28.80;;;1.10;99.90;;;;;;5004899;28;20215;-83
2020/12/09 06:59:26;;;;;;;51.90;28.17;;;1.10;99.90;;;;;;5006514;28;20211;-78
2020/12/09 07:02:00;;;;;;;41.93;26.17;;;1.10;99.90;;;;;;5008114;28;20226;-81
2020/12/09 07:05:00;;;;;;;77.00;27.47;;;1.00;99.90;;;;;;5008148;28;20201;-81
2020/12/09 07:07:27;;;;;;;52.03;26.97;;;1.00;99.90;;;;;;5005970;28;20207;-81
2020/12/09 07:09:53;;;;;;;52.50;26.27;;;1.00;99.90;;;;;;5007781;28;20622;-82
2020/12/09 07:12:19;;;;;;;52.13;26.10;;;0.90;99.90;;;;;;5008969;28;20207;-77
2020/12/09 07:14:49;;;;;;;64.53;26.90;;;0.90;99.90;;;;;;5010400;28;20233;-82
2020/12/09 07:17:17;;;;;;;46.00;26.33;;;0.90;99.90;;;;;;5011498;28;20254;-81
2020/12/09 07:19:43;;;;;;;49.97;26.17;;;0.90;99.90;;;;;;5012358;28;20203;-80
2020/12/09 07:22:10;;;;;;;45.00;26.67;;;0.90;99.90;;;;;;5011710;28;20210;-82
2020/12/09 07:24:36;;;;;;;40.70;25.40;;;0.80;99.90;;;;;;5011950;28;20218;-82
2020/12/09 07:27:03;;;;;;;52.23;26.57;;;0.90;99.90;;;;;;5029614;28;20778;-81
2020/12/09 07:29:29;;;;;;;49.90;27.20;;;0.90;99.90;;;;;;5031007;28;20899;-80
2020/12/09 07:31:59;;;;;;;46.43;27.27;;;0.90;99.90;;;;;;5031740;28;20232;-82
2020/12/09 07:34:27;;;;;;;50.37;27.67;;;0.80;99.90;;;;;;5031450;28;20480;-82
2020/12/09 07:36:54;;;;;;;56.30;26.97;;;0.80;99.90;;;;;;5028137;28;20206;-75
2020/12/09 07:39:32;;;;;;;51.20;28.10;;;0.80;99.90;;;;;;5028287;28;20208;-84
2020/12/09 07:41:58;;;;;;;71.33;27.73;;;0.90;99.90;;;;;;5033715;28;20853;-85
2020/12/09 07:44:25;;;;;;;53.37;27.73;;;0.80;99.90;;;;;;5033470;28;20214;-82
2020/12/09 07:46:56;;;;;;;45.60;27.33;;;0.80;99.90;;;;;;5033526;28;20210;-81
2020/12/09 07:49:23;;;;;;;45.90;27.67;;;0.80;99.90;;;;;;5034247;28;20190;-84
2020/12/09 07:51:52;;;;;;;44.57;27.13;;;0.70;99.90;;;;;;5034242;28;20207;-84
2020/12/09 07:54:20;;;;;;;60.73;28.17;;;0.70;99.90;;;;;;5033252;28;20206;-84
2020/12/09 07:56:47;;;;;;;48.70;25.17;;;0.70;99.90;;;;;;5033305;28;20207;-84
2020/12/09 07:59:14;;;;;;;61.03;28.27;;;0.70;99.90;;;;;;5033768;28;20248;-84
2020/12/09 08:01:41;;;;;;;67.07;27.67;;;0.70;99.90;;;;;;5034005;28;20209;-86
2020/12/09 08:04:09;;;;;;;54.60;27.43;;;0.70;99.90;;;;;;5033803;28;20202;-84
2020/12/09 08:06:36;;;;;;;61.63;27.60;;;0.70;99.90;;;;;;5034209;28;20203;-84
2020/12/09 08:09:16;;;;;;;46.43;25.87;;;0.70;99.90;;;;;;5033746;28;20225;-82
2020/12/09 08:11:43;;;;;;;42.37;24.97;;;0.70;99.90;;;;;;5035345;28;20603;-84
2020/12/09 08:14:10;;;;;;;52.37;27.33;;;0.70;99.90;;;;;;5034407;28;20198;-87
2020/12/09 08:16:36;;;;;;;41.63;25.80;;;0.80;99.90;;;;;;5034937;28;20225;-83
2020/12/09 08:19:07;;;;;;;67.50;28.63;;;0.90;99.90;;;;;;5033903;28;20202;-85
2020/12/09 08:21:34;;;;;;;51.67;27.57;;;0.90;99.90;;;;;;5033662;28;20203;-86
2020/12/09 08:24:11;;;;;;;55.17;28.87;;;0.90;99.90;;;;;;5026400;28;20195;-80
2020/12/09 08:26:39;;;;;;;54.23;28.00;;;0.90;99.90;;;;;;5014625;28;20257;-86
2020/12/09 08:29:06;;;;;;;48.17;27.03;;;1.00;99.90;;;;;;5006865;28;20218;-87
2020/12/09 08:31:34;;;;;;;49.27;26.60;;;1.00;99.90;;;;;;5007736;28;20219;-77
2020/12/09 08:55:46;;;;;;;73.57;27.30;;;1.20;99.90;;;;;;4799201;29;20239;-88
2020/12/09 08:58:12;;;;;;;62.50;28.90;;;1.20;99.90;;;;;;4944673;29;20673;-75
2020/12/09 09:00:39;;;;;;;59.50;29.77;;;1.20;99.90;;;;;;4944274;29;20213;-76
2020/12/09 09:03:06;;;;;;;60.30;29.83;;;1.20;99.90;;;;;;4945064;29;20753;-79
2020/12/09 09:05:33;;;;;;;84.53;32.87;;;1.20;99.90;;;;;;4946783;29;20210;-83
2020/12/09 09:07:59;;;;;;;72.27;33.63;;;1.20;99.90;;;;;;4944947;29;20213;-76
2020/12/09 09:10:25;;;;;;;78.07;36.47;;;1.20;99.90;;;;;;4946976;29;20209;-75
2020/12/09 09:12:52;;;;;;;114.43;39.00;;;1.10;99.90;;;;;;4947111;29;20224;-75
2020/12/09 09:15:19;;;;;;;85.17;38.40;;;1.20;99.90;;;;;;4952088;28;20239;-76
2020/12/09 09:17:45;;;;;;;62.93;36.00;;;1.20;99.90;;;;;;4965922;28;20212;-77
2020/12/09 09:20:11;;;;;;;78.27;38.37;;;1.20;99.90;;;;;;4963975;28;20212;-75
2020/12/09 09:22:37;;;;;;;83.90;35.33;;;1.20;99.90;;;;;;4963878;28;20342;-75
2020/12/09 09:25:05;;;;;;;74.03;35.07;;;1.20;99.90;;;;;;4964586;28;20842;-91
2020/12/09 09:27:31;;;;;;;68.13;36.40;;;1.30;99.90;;;;;;4965285;28;20216;-75
2020/12/09 09:29:59;;;;;;;72.50;36.23;;;1.20;99.90;;;;;;4963959;28;20712;-77
2020/12/09 09:32:26;;;;;;;69.33;37.03;;;1.30;99.90;;;;;;4965308;28;20231;-77
2020/12/09 09:34:53;;;;;;;124.27;43.33;;;1.30;99.90;;;;;;4967005;28;20228;-90
2020/12/09 09:37:21;;;;;;;124.07;44.23;;;1.30;99.90;;;;;;4966250;28;20543;-89
2020/12/09 09:39:48;;;;;;;81.53;40.67;;;1.30;99.90;;;;;;4966420;28;20224;-79
2020/12/09 09:42:16;;;;;;;83.10;39.70;;;1.30;99.90;;;;;;4966674;28;20201;-80
2020/12/09 09:44:43;;;;;;;82.83;40.20;;;1.30;99.90;;;;;;4965938;28;20230;-79
2020/12/09 09:47:10;;;;;;;85.57;40.70;;;1.30;99.90;;;;;;4967617;28;20207;-83
2020/12/09 09:49:36;;;;;;;79.30;40.83;;;1.40;99.90;;;;;;4965391;28;20208;-77
2020/12/09 09:52:06;;;;;;;103.80;43.80;;;1.40;99.90;;;;;;4966221;28;20237;-85
2020/12/09 09:54:32;;;;;;;104.33;42.67;;;1.40;99.90;;;;;;4966953;28;20204;-85
2020/12/09 09:56:59;;;;;;;111.93;44.33;;;1.40;99.90;;;;;;4988451;28;20540;-75
2020/12/09 09:59:25;;;;;;;105.37;42.90;;;1.20;99.90;;;;;;5007689;28;20200;-75
2020/12/09 10:01:52;;;;;;;100.20;45.33;;;1.20;99.90;;;;;;5007999;28;20515;-78
2020/12/09 10:04:19;;;;;;;97.93;45.37;;;1.30;99.90;;;;;;5007279;28;20199;-88
2020/12/09 10:06:46;;;;;;;105.23;45.80;;;1.30;99.90;;;;;;5013260;28;20198;-88
2020/12/09 10:09:12;;;;;;;101.13;42.57;;;1.30;99.90;;;;;;5008731;28;20207;-75
2020/12/09 10:11:40;;;;;;;101.17;43.83;;;1.40;99.90;;;;;;5018281;28;20209;-76
2020/12/09 10:14:07;;;;;;;95.00;42.80;;;1.40;99.90;;;;;;5018043;28;20599;-92
2020/12/09 10:16:34;;;;;;;100.10;44.87;;;1.40;99.90;;;;;;5010135;28;20777;-94
2020/12/09 10:19:00;;;;;;;102.20;46.33;;;1.40;99.90;;;;;;5007773;28;20211;-74
2020/12/09 10:21:29;;;;;;;100.97;45.67;;;1.40;99.90;;;;;;5007551;28;20195;-88
2020/12/09 10:23:56;;;;;;;110.80;46.17;;;1.40;99.90;;;;;;5009736;28;20786;-91
2020/12/09 10:26:30;;;;;;;114.80;49.13;;;1.50;99.90;;;;;;5008464;28;20214;-92
2020/12/09 10:29:00;;;;;;;109.63;48.60;;;1.50;99.90;;;;;;5007470;28;20203;-89
2020/12/09 10:31:32;;;;;;;101.23;47.57;;;1.40;99.90;;;;;;5009907;28;20290;-80
2020/12/09 10:33:58;;;;;;;111.13;47.07;;;1.50;99.90;;;;;;5010034;28;20758;-93
2020/12/09 10:36:25;;;;;;;100.07;47.37;;;1.40;99.90;;;;;;5010867;28;20544;-83
2020/12/09 10:38:52;;;;;;;103.10;47.63;;;1.40;99.90;;;;;;5010044;28;20211;-89
2020/12/09 10:41:19;;;;;;;106.87;48.47;;;1.30;99.90;;;;;;5010003;28;20314;-89
2020/12/09 10:43:46;;;;;;;107.13;49.43;;;1.30;99.90;;;;;;5007322;28;20619;-85
2020/12/09 10:46:12;;;;;;;107.10;47.93;;;1.30;99.90;;;;;;5008470;28;20195;-89
2020/12/09 10:48:38;;;;;;;124.27;48.63;;;1.30;99.90;;;;;;5009419;28;20206;-83
2020/12/09 10:51:05;;;;;;;100.63;46.90;;;1.30;99.90;;;;;;5007941;28;20215;-80
2020/12/09 10:53:32;;;;;;;115.83;48.93;;;1.30;99.90;;;;;;5007185;28;20211;-77
2020/12/09 10:55:59;;;;;;;115.63;48.77;;;1.40;99.90;;;;;;5007944;28;20325;-87
2020/12/09 10:58:27;;;;;;;106.47;47.60;;;1.30;99.90;;;;;;5008800;28;20200;-79
2020/12/09 11:00:53;;;;;;;101.27;44.90;;;1.30;99.90;;;;;;5007312;28;20207;-73
2020/12/09 11:03:20;;;;;;;94.47;45.67;;;1.30;99.90;;;;;;5006789;28;20203;-86
2020/12/09 11:05:46;;;;;;;99.27;46.27;;;1.40;99.90;;;;;;5009621;28;20198;-88
2020/12/09 11:08:13;;;;;;;88.77;42.83;;;1.40;99.90;;;;;;5008752;28;20217;-88
2020/12/09 11:10:39;;;;;;;95.10;45.13;;;1.50;99.90;;;;;;5007085;28;20203;-77
2020/12/09 11:13:07;;;;;;;87.80;42.30;;;1.40;99.90;;;;;;5007794;28;20231;-83
2020/12/09 11:15:33;;;;;;;80.40;42.93;;;1.50;99.90;;;;;;5009316;28;20231;-89
2020/12/09 11:18:00;;;;;;;81.10;40.63;;;1.50;99.90;;;;;;5007628;28;20235;-85
2020/12/09 11:20:27;;;;;;;69.47;36.10;;;1.40;99.90;;;;;;5008310;28;20778;-81
2020/12/09 11:22:53;;;;;;;70.73;36.50;;;1.50;99.90;;;;;;5009009;28;20204;-79
2020/12/09 11:25:21;;;;;;;66.83;34.67;;;1.50;99.90;;;;;;5012184;28;20234;-82
2020/12/09 11:27:48;;;;;;;65.77;35.23;;;1.50;99.90;;;;;;5028252;28;20210;-88
2020/12/09 11:30:15;;;;;;;68.33;36.03;;;1.50;99.90;;;;;;5027650;28;20203;-88
2020/12/09 11:32:41;;;;;;;60.63;34.23;;;1.50;99.90;;;;;;5028200;28;20198;-80
2020/12/09 11:35:08;;;;;;;60.90;33.63;;;1.50;99.90;;;;;;5027139;28;20234;-86
2020/12/09 11:37:35;;;;;;;60.87;32.03;;;1.50;99.90;;;;;;5028109;28;20684;-82
2020/12/09 11:40:01;;;;;;;61.47;33.60;;;1.50;99.90;;;;;;5028991;28;20246;-84
2020/12/09 11:42:27;;;;;;;61.47;32.50;;;1.60;99.90;;;;;;5013277;28;20330;-78
2020/12/09 11:44:53;;;;;;;55.80;31.87;;;1.60;99.90;;;;;;5008694;28;20604;-89
2020/12/09 11:47:21;;;;;;;60.70;31.90;;;1.60;99.90;;;;;;5009152;28;20226;-89
2020/12/09 11:49:47;;;;;;;59.30;32.40;;;1.60;99.90;;;;;;5008954;28;20203;-90
2020/12/09 11:52:13;;;;;;;55.80;31.47;;;1.70;99.90;;;;;;5009429;28;20210;-83
2020/12/09 11:54:40;;;;;;;55.13;29.90;;;1.70;99.90;;;;;;5011320;28;20203;-87
2020/12/09 11:57:06;;;;;;;56.10;30.40;;;1.70;99.90;;;;;;5011311;28;20227;-86
2020/12/09 11:59:32;;;;;;;56.23;30.60;;;1.70;99.90;;;;;;5013765;28;20206;-89
2020/12/09 12:01:58;;;;;;;57.97;32.00;;;1.80;99.90;;;;;;5012716;28;20643;-86
2020/12/09 12:04:25;;;;;;;58.37;30.90;;;1.70;99.90;;;;;;5012442;28;20527;-80
2020/12/09 12:06:52;;;;;;;60.20;31.07;;;1.80;99.90;;;;;;5012147;28;20294;-85
2020/12/09 12:09:18;;;;;;;62.53;32.80;;;1.80;99.90;;;;;;5013405;28;20199;-88
2020/12/09 12:11:44;;;;;;;61.37;32.50;;;1.80;99.90;;;;;;5011988;28;20207;-81
2020/12/09 12:14:11;;;;;;;64.23;32.13;;;1.90;99.90;;;;;;5012246;28;20242;-85
2020/12/09 12:16:37;;;;;;;61.20;32.73;;;1.80;99.90;;;;;;5010908;28;20226;-78
2020/12/09 12:19:04;;;;;;;62.07;31.67;;;1.90;99.90;;;;;;5021338;28;20203;-87
2020/12/09 12:21:31;;;;;;;66.27;33.23;;;1.90;99.90;;;;;;5015233;28;20203;-88
2020/12/09 12:23:58;;;;;;;61.87;32.20;;;1.90;99.90;;;;;;5014196;28;20199;-88
2020/12/09 12:26:24;;;;;;;63.37;32.07;;;1.90;99.90;;;;;;5025534;28;20214;-90
2020/12/09 12:28:51;;;;;;;61.90;32.83;;;2.00;99.90;;;;;;5034568;28;20213;-89
2020/12/09 12:31:19;;;;;;;64.47;32.23;;;2.00;99.90;;;;;;5033243;28;20238;-91
2020/12/09 12:33:45;;;;;;;66.93;34.20;;;2.00;99.90;;;;;;5033170;28;20195;-89
2020/12/09 12:36:16;;;;;;;60.53;32.00;;;1.90;99.90;;;;;;5032258;28;20222;-87
2020/12/09 12:38:44;;;;;;;60.00;31.57;;;1.90;99.90;;;;;;5020121;28;20207;-89
2020/12/09 12:41:11;;;;;;;61.37;31.73;;;1.90;99.90;;;;;;5019082;28;20239;-87
2020/12/09 12:43:37;;;;;;;66.00;33.50;;;2.00;99.90;;;;;;5012076;28;20212;-90
2020/12/09 12:46:10;;;;;;;67.07;33.90;;;2.00;99.90;;;;;;5011175;28;20630;-88
2020/12/09 12:48:36;;;;;;;67.43;33.47;;;2.00;99.90;;;;;;5011429;28;20654;-89
2020/12/09 12:51:03;;;;;;;65.90;33.93;;;2.10;99.90;;;;;;5008313;28;20199;-89
2020/12/09 12:53:29;;;;;;;66.43;35.00;;;2.00;99.90;;;;;;5011489;28;20214;-89
2020/12/09 12:55:57;;;;;;;73.13;35.60;;;2.10;99.90;;;;;;5010858;28;20310;-87
2020/12/09 12:58:23;;;;;;;71.07;37.37;;;2.10;99.90;;;;;;5010866;28;21772;-87
2020/12/09 13:00:50;;;;;;;65.67;35.47;;;2.10;99.90;;;;;;5009512;28;20243;-86
2020/12/09 13:03:16;;;;;;;69.37;34.70;;;2.10;99.90;;;;;;5005005;28;20207;-87